createdAt,value
2022-11-14T00:00:47.929Z,11.81
2022-11-14T00:03:25.286Z,11.82
2022-11-14T00:05:59.554Z,11.78
2022-11-14T00:08:36.233Z,11.81
2022-11-14T00:11:09.775Z,11.75
2022-11-14T00:13:46.759Z,11.75
2022-11-14T00:16:22.035Z,11.73
2022-11-14T00:19:01.798Z,11.74
2022-11-14T00:21:37.113Z,11.72
2022-11-14T00:24:14.701Z,11.71
2022-11-14T00:26:47.964Z,11.72
2022-11-14T00:29:20.792Z,11.71
2022-11-14T00:31:56.815Z,11.69
2022-11-14T00:34:32.541Z,11.72
2022-11-14T00:37:05.927Z,11.70
2022-11-14T00:39:40.135Z,11.71
2022-11-14T00:42:14.572Z,11.70
2022-11-14T00:44:47.641Z,11.68
2022-11-14T00:47:23.028Z,11.67
2022-11-14T00:49:59.483Z,11.69
2022-11-14T00:52:33.182Z,11.68
2022-11-14T00:55:08.204Z,11.65
2022-11-14T00:57:43.643Z,11.63
2022-11-14T01:00:17.883Z,11.63
2022-11-14T01:02:51.944Z,11.61
2022-11-14T01:05:29.743Z,11.61
2022-11-14T01:08:03.789Z,11.59
2022-11-14T01:10:40.719Z,11.58
2022-11-14T01:13:14.057Z,11.55
2022-11-14T01:15:57.220Z,11.56
2022-11-14T01:18:30.541Z,11.51
2022-11-14T01:21:08.212Z,11.53
2022-11-14T01:23:49.164Z,11.50
2022-11-14T01:26:27.136Z,11.48
2022-11-14T01:29:02.774Z,11.48
2022-11-14T01:31:36.459Z,11.46
2022-11-14T01:34:13.103Z,11.41
2022-11-14T01:36:55.626Z,11.38
2022-11-14T01:39:30.741Z,11.39
2022-11-14T01:42:13.923Z,11.34
2022-11-14T01:44:52.863Z,11.34
2022-11-14T01:47:31.518Z,11.32
2022-11-14T01:50:17.004Z,11.30
2022-11-14T01:52:51.988Z,11.28
2022-11-14T01:55:25.448Z,11.25
2022-11-14T01:58:07.693Z,11.22
2022-11-14T02:00:44.114Z,11.25
2022-11-14T02:03:18.240Z,11.22
2022-11-14T02:05:58.252Z,11.18
2022-11-14T02:08:35.779Z,11.15
2022-11-14T02:11:26.144Z,11.10
2022-11-14T02:14:01.313Z,11.07
2022-11-14T02:16:35.284Z,11.03
2022-11-14T02:19:11.092Z,10.98
2022-11-14T02:21:56.799Z,10.97
2022-11-14T02:24:33.443Z,10.91
2022-11-14T02:27:13.058Z,10.86
2022-11-14T02:30:00.600Z,10.85
2022-11-14T02:33:09.899Z,10.81
2022-11-14T02:35:49.186Z,10.77
2022-11-14T02:38:43.968Z,10.71
2022-11-14T02:41:31.165Z,10.68
2022-11-14T02:44:21.577Z,10.65
2022-11-14T02:47:12.488Z,10.63
2022-11-14T02:53:15.873Z,10.61
2022-11-14T03:02:00.461Z,10.59
2022-11-14T03:04:59.574Z,10.63
2022-11-14T03:07:43.307Z,10.64
2022-11-14T03:10:27.575Z,10.63
2022-11-14T03:13:13.357Z,10.67
2022-11-14T03:15:59.662Z,10.67
2022-11-14T03:21:40.956Z,10.69
2022-11-14T03:24:43.573Z,10.73
2022-11-14T03:27:44.030Z,10.71
2022-11-14T03:30:55.791Z,10.72
2022-11-14T03:36:56.785Z,10.75
2022-11-14T03:39:38.723Z,10.73
2022-11-14T03:42:29.867Z,10.73
2022-11-14T03:45:19.163Z,10.76
2022-11-14T03:48:18.358Z,10.75
2022-11-14T03:51:20.941Z,10.74
2022-11-14T03:54:11.520Z,10.72
2022-11-14T03:56:55.250Z,10.73
2022-11-14T03:59:45.957Z,10.75
2022-11-14T04:02:23.610Z,10.74
2022-11-14T04:05:21.506Z,10.77
2022-11-14T04:07:54.565Z,10.75
2022-11-14T04:10:29.869Z,10.77
2022-11-14T04:13:02.700Z,10.76
2022-11-14T04:15:36.354Z,10.78
2022-11-14T04:18:09.175Z,10.78
2022-11-14T04:20:43.424Z,10.83
2022-11-14T04:23:17.177Z,10.81
2022-11-14T04:25:53.011Z,10.83
2022-11-14T04:28:32.071Z,10.87
2022-11-14T04:31:09.162Z,10.87
2022-11-14T04:33:43.719Z,10.88
2022-11-14T04:36:30.539Z,10.90
2022-11-14T04:39:10.583Z,10.89
2022-11-14T04:41:46.300Z,10.89
2022-11-14T04:44:22.433Z,10.89
2022-11-14T04:47:00.591Z,10.89
2022-11-14T04:49:34.635Z,10.89
2022-11-14T04:52:25.472Z,10.90
2022-11-14T04:55:03.211Z,10.87
2022-11-14T04:57:38.120Z,10.87
2022-11-14T05:00:18.683Z,10.86
2022-11-14T05:02:53.718Z,10.85
2022-11-14T05:05:31.031Z,10.85
2022-11-14T05:08:05.685Z,10.84
2022-11-14T05:10:43.795Z,10.83
2022-11-14T05:13:16.620Z,10.83
2022-11-14T05:15:52.163Z,10.82
2022-11-14T05:18:25.970Z,10.80
2022-11-14T05:21:00.222Z,10.81
2022-11-14T05:23:54.996Z,10.82
2022-11-14T05:26:32.114Z,10.82
2022-11-14T05:29:08.226Z,10.80
2022-11-14T05:31:41.162Z,10.81
2022-11-14T05:34:14.955Z,10.81
2022-11-14T05:36:50.354Z,10.81
2022-11-14T05:39:32.685Z,10.83
2022-11-14T05:42:06.280Z,10.82
2022-11-14T05:44:40.255Z,10.82
2022-11-14T05:47:20.828Z,10.84
2022-11-14T05:49:56.447Z,10.84
2022-11-14T05:52:30.796Z,10.85
2022-11-14T05:55:08.702Z,10.88
2022-11-14T05:57:41.803Z,10.89
2022-11-14T06:00:19.672Z,10.89
2022-11-14T06:02:53.967Z,10.91
2022-11-14T06:05:28.692Z,10.93
2022-11-14T06:08:07.061Z,10.94
2022-11-14T06:10:42.591Z,10.97
2022-11-14T06:13:17.378Z,11.00
2022-11-14T06:15:51.327Z,11.04
2022-11-14T06:18:24.098Z,11.07
2022-11-14T06:21:02.481Z,11.12
2022-11-14T06:23:35.938Z,11.12
2022-11-14T06:26:17.661Z,11.16
2022-11-14T06:28:52.025Z,11.16
2022-11-14T06:31:25.565Z,11.16
2022-11-14T06:33:58.439Z,11.18
2022-11-14T06:36:31.270Z,11.17
2022-11-14T06:39:05.319Z,11.18
2022-11-14T06:41:39.691Z,11.21
2022-11-14T06:44:12.480Z,11.20
2022-11-14T06:46:45.291Z,11.23
2022-11-14T06:49:18.126Z,11.25
2022-11-14T06:51:51.305Z,11.27
2022-11-14T06:54:25.762Z,11.32
2022-11-14T06:57:02.293Z,11.35
2022-11-14T06:59:35.555Z,11.37
2022-11-14T07:02:17.738Z,11.40
2022-11-14T07:04:55.689Z,11.42
2022-11-14T07:07:34.491Z,11.45
2022-11-14T07:10:09.264Z,11.47
2022-11-14T07:12:44.328Z,11.49
2022-11-14T07:15:32.236Z,11.46
2022-11-14T07:18:16.190Z,11.40
2022-11-14T07:21:30.741Z,11.36
2022-11-14T07:30:00.362Z,11.22
2022-11-14T07:32:49.483Z,11.15
2022-11-14T07:35:28.632Z,11.13
2022-11-14T07:41:19.977Z,11.12
2022-11-14T07:43:55.731Z,11.13
2022-11-14T07:46:34.413Z,11.13
2022-11-14T07:49:10.666Z,11.15
2022-11-14T07:51:48.026Z,11.16
2022-11-14T07:54:24.555Z,11.18
2022-11-14T07:57:01.682Z,11.22
2022-11-14T07:59:37.563Z,11.22
2022-11-14T08:02:17.727Z,11.24
2022-11-14T08:04:53.016Z,11.22
2022-11-14T08:07:33.907Z,11.28
2022-11-14T08:10:23.416Z,11.26
2022-11-14T08:16:12.359Z,11.28
2022-11-14T08:18:55.365Z,11.30
2022-11-14T08:21:38.038Z,11.30
2022-11-14T08:24:18.778Z,11.32
2022-11-14T08:26:56.662Z,11.36
2022-11-14T08:29:42.003Z,11.36
2022-11-14T08:32:21.500Z,11.41
2022-11-14T08:35:06.863Z,11.44
2022-11-14T08:37:50.853Z,11.47
2022-11-14T08:40:26.899Z,11.55
2022-11-14T08:43:10.911Z,11.63
2022-11-14T08:45:52.341Z,11.75
2022-11-14T08:48:28.258Z,11.82
2022-11-14T08:51:09.882Z,11.94
2022-11-14T08:53:49.390Z,12.00
2022-11-14T08:56:24.718Z,12.09
2022-11-14T08:59:01.501Z,12.20
2022-11-14T09:01:39.066Z,12.30
2022-11-14T09:04:13.481Z,12.36
2022-11-14T09:06:58.242Z,12.44
2022-11-14T09:09:34.332Z,12.52
2022-11-14T09:12:14.744Z,12.56
2022-11-14T09:14:52.789Z,12.61
2022-11-14T09:17:30.359Z,12.66
2022-11-14T09:20:11.723Z,12.70
2022-11-14T09:23:00.378Z,12.72
2022-11-14T09:25:36.732Z,12.78
2022-11-14T09:28:28.811Z,12.83
2022-11-14T09:31:08.280Z,12.84
2022-11-14T09:33:57.714Z,12.90
2022-11-14T09:36:38.303Z,12.93
2022-11-14T09:39:32.218Z,12.98
2022-11-14T09:42:33.754Z,13.00
2022-11-14T09:45:32.752Z,13.01
2022-11-14T09:48:32.799Z,13.04
2022-11-14T09:55:00.070Z,13.10
2022-11-14T09:57:40.526Z,13.10
2022-11-14T10:00:30.953Z,13.10
2022-11-14T10:03:14.673Z,13.13
2022-11-14T10:06:26.663Z,13.16
2022-11-14T10:09:28.916Z,13.20
2022-11-14T10:12:27.915Z,13.25
2022-11-14T10:15:28.534Z,13.30
2022-11-14T10:18:26.526Z,13.34
2022-11-14T10:21:26.219Z,13.42
2022-11-14T10:24:08.776Z,13.46
2022-11-14T10:27:00.906Z,13.49
2022-11-14T10:30:15.141Z,13.57
2022-11-14T10:33:21.658Z,13.66
2022-11-14T10:36:16.809Z,13.75
2022-11-14T10:39:00.607Z,13.85
2022-11-14T10:41:57.646Z,13.92
2022-11-14T10:44:41.856Z,14.05
2022-11-14T10:47:34.090Z,14.10
2022-11-14T10:56:59.349Z,14.31
2022-11-14T11:00:00.378Z,14.31
2022-11-14T11:02:59.012Z,14.35
2022-11-14T11:05:51.586Z,14.34
2022-11-14T11:11:53.129Z,14.30
2022-11-14T11:14:35.129Z,14.27
2022-11-14T11:17:38.537Z,14.25
2022-11-14T11:20:39.501Z,14.20
2022-11-14T11:23:26.884Z,14.16
2022-11-14T11:29:11.295Z,14.13
2022-11-14T11:37:41.247Z,14.24
2022-11-14T11:40:25.790Z,14.29
2022-11-14T11:46:06.769Z,14.41
2022-11-14T11:48:41.365Z,14.48
2022-11-14T11:51:41.102Z,14.60
2022-11-14T11:54:20.923Z,14.68
2022-11-14T11:57:06.658Z,14.79
2022-11-14T12:00:29.806Z,14.87
2022-11-14T12:17:19.796Z,15.26
2022-11-14T12:20:16.544Z,15.34
2022-11-14T12:23:17.559Z,15.41
2022-11-14T12:29:33.859Z,15.52
2022-11-14T12:32:13.286Z,15.54
2022-11-14T12:35:04.986Z,15.59
2022-11-14T12:38:27.812Z,15.62
2022-11-14T12:41:19.902Z,15.58
2022-11-14T12:44:39.773Z,15.57
2022-11-14T13:25:08.616Z,15.80
2022-11-14T13:31:08.519Z,15.87
2022-11-14T13:33:44.104Z,15.87
2022-11-14T13:39:42.606Z,15.88
2022-11-14T13:45:48.712Z,15.90
2022-11-14T13:49:04.199Z,15.91
2022-11-14T13:51:43.936Z,15.88
2022-11-14T13:54:20.910Z,15.96
2022-11-14T13:57:07.334Z,15.98
2022-11-14T14:03:35.975Z,16.09
2022-11-14T14:06:59.221Z,16.18
2022-11-14T14:19:07.026Z,16.38
2022-11-14T14:24:53.549Z,16.27
2022-11-14T14:27:34.108Z,16.25
2022-11-14T14:30:14.610Z,16.20
2022-11-14T14:33:15.920Z,16.17
2022-11-14T14:35:55.831Z,16.09
2022-11-14T14:38:32.599Z,16.08
2022-11-14T14:41:08.139Z,16.01
2022-11-14T14:43:44.472Z,15.98
2022-11-14T14:46:19.989Z,15.93
2022-11-14T14:48:52.991Z,15.89
2022-11-14T14:51:34.781Z,15.86
2022-11-14T14:54:19.902Z,15.80
2022-11-14T14:57:00.171Z,15.83
2022-11-14T14:59:33.387Z,15.79
2022-11-14T15:02:16.391Z,15.81
2022-11-14T15:04:49.505Z,15.76
2022-11-14T15:07:26.659Z,15.79
2022-11-14T15:10:03.014Z,15.80
2022-11-14T15:12:36.583Z,15.82
2022-11-14T15:15:14.877Z,15.83
2022-11-14T15:17:49.693Z,15.85
2022-11-14T15:20:24.061Z,15.85
2022-11-14T15:23:07.835Z,15.91
2022-11-14T15:25:46.464Z,15.90
2022-11-14T15:28:23.457Z,15.90
2022-11-14T15:31:00.278Z,15.88
2022-11-14T15:33:38.320Z,15.86
2022-11-14T15:36:14.513Z,15.83
2022-11-14T15:39:01.199Z,15.83
2022-11-14T15:41:35.863Z,15.79
2022-11-14T15:44:36.917Z,15.77
2022-11-14T15:47:15.207Z,15.71
2022-11-14T15:49:58.768Z,15.69
2022-11-14T15:52:37.634Z,15.64
2022-11-14T15:55:19.720Z,15.59
2022-11-14T15:58:21.024Z,15.55
2022-11-14T16:00:52.519Z,15.49
2022-11-14T16:03:25.955Z,15.43
2022-11-14T16:05:58.870Z,15.40
2022-11-14T16:08:32.036Z,15.37
2022-11-14T16:11:05.131Z,15.31
2022-11-14T16:13:39.647Z,15.29
2022-11-14T16:16:12.618Z,15.27
2022-11-14T16:18:45.745Z,15.23
2022-11-14T16:21:19.935Z,15.21
2022-11-14T16:23:53.461Z,15.17
2022-11-14T16:26:27.538Z,15.16
2022-11-14T16:29:01.957Z,15.13
2022-11-14T16:31:35.567Z,15.09
2022-11-14T16:34:09.288Z,15.04
2022-11-14T16:36:42.113Z,14.98
2022-11-14T16:39:14.936Z,14.95
2022-11-14T16:41:48.005Z,14.90
2022-11-14T16:44:22.422Z,14.86
2022-11-14T16:46:55.575Z,14.80
2022-11-14T16:49:28.634Z,14.77
2022-11-14T16:52:07.509Z,14.74
2022-11-14T16:54:40.435Z,14.68
2022-11-14T16:57:13.717Z,14.66
2022-11-14T16:59:48.008Z,14.64
2022-11-14T17:02:21.309Z,14.60
2022-11-14T17:04:54.377Z,14.56
2022-11-14T17:07:30.594Z,14.49
2022-11-14T17:10:04.294Z,14.45
2022-11-14T17:12:39.399Z,14.42
2022-11-14T17:15:13.711Z,14.36
2022-11-14T17:17:50.271Z,14.31
2022-11-14T17:20:23.101Z,14.28
2022-11-14T17:22:58.938Z,14.26
2022-11-14T17:25:32.256Z,14.23
2022-11-14T17:28:05.436Z,14.23
2022-11-14T17:30:43.199Z,14.21
2022-11-14T17:33:16.269Z,14.18
2022-11-14T17:35:49.104Z,14.16
2022-11-14T17:38:22.350Z,14.15
2022-11-14T17:40:59.440Z,14.14
2022-11-14T17:43:38.403Z,14.09
2022-11-14T17:46:16.336Z,14.07
2022-11-14T17:48:50.140Z,14.05
2022-11-14T17:51:23.770Z,14.00
2022-11-14T17:53:57.429Z,13.94
2022-11-14T17:56:30.591Z,13.89
2022-11-14T17:59:04.654Z,13.83
2022-11-14T18:01:39.302Z,13.76
2022-11-14T18:04:13.277Z,13.70
2022-11-14T18:06:46.188Z,13.62
2022-11-14T18:09:19.148Z,13.55
2022-11-14T18:11:52.224Z,13.46
2022-11-14T18:14:26.047Z,13.39
2022-11-14T18:17:16.286Z,13.30
2022-11-14T18:19:49.876Z,13.19
2022-11-14T18:22:23.612Z,13.09
2022-11-14T18:24:56.928Z,12.99
2022-11-14T18:27:29.896Z,12.88
2022-11-14T18:30:20.064Z,12.77
2022-11-14T18:32:58.008Z,12.67
2022-11-14T18:35:31.080Z,12.55
2022-11-14T18:38:03.903Z,12.44
2022-11-14T18:40:39.546Z,12.37
2022-11-14T18:43:12.750Z,12.24
2022-11-14T18:45:46.069Z,12.15
2022-11-14T18:48:20.474Z,12.08
2022-11-14T18:51:02.130Z,11.99
2022-11-14T18:53:37.020Z,11.87
2022-11-14T18:56:14.550Z,11.80
2022-11-14T18:58:50.801Z,11.71
2022-11-14T19:01:30.856Z,11.64
2022-11-14T19:04:07.299Z,11.59
2022-11-14T19:06:42.592Z,11.49
2022-11-14T19:09:22.996Z,11.43
2022-11-14T19:12:13.383Z,11.34
2022-11-14T19:14:46.720Z,11.27
2022-11-14T19:17:31.498Z,11.22
2022-11-14T19:20:12.939Z,11.18
2022-11-14T19:22:47.386Z,11.12
2022-11-14T19:25:20.494Z,11.05
2022-11-14T19:27:53.613Z,11.00
2022-11-14T19:30:26.536Z,10.94
2022-11-14T19:32:59.853Z,10.90
2022-11-14T19:36:24.046Z,10.85
2022-11-14T19:39:02.916Z,10.80
2022-11-14T19:41:37.529Z,10.77
2022-11-14T19:44:10.833Z,10.72
2022-11-14T19:46:48.473Z,10.69
2022-11-14T19:49:26.966Z,10.64
2022-11-14T19:52:13.983Z,10.61
2022-11-14T19:54:49.319Z,10.53
2022-11-14T19:57:27.683Z,10.51
2022-11-14T20:00:02.628Z,10.49
2022-11-14T20:02:38.735Z,10.42
2022-11-14T20:05:11.772Z,10.42
2022-11-14T20:07:46.141Z,10.38
2022-11-14T20:10:22.050Z,10.39
2022-11-14T20:12:55.354Z,10.37
2022-11-14T20:15:30.907Z,10.36
2022-11-14T20:18:06.659Z,10.32
2022-11-14T20:20:39.683Z,10.30
2022-11-14T20:23:14.200Z,10.28
2022-11-14T20:25:52.662Z,10.29
2022-11-14T20:28:25.502Z,10.24
2022-11-14T20:31:02.066Z,10.23
2022-11-14T20:33:39.011Z,10.20
2022-11-14T20:36:16.883Z,10.17
2022-11-14T20:38:52.263Z,10.16
2022-11-14T20:41:27.826Z,10.14
2022-11-14T20:44:01.887Z,10.12
2022-11-14T20:46:34.924Z,10.10
2022-11-14T20:49:08.206Z,10.07
2022-11-14T20:51:41.269Z,10.07
2022-11-14T20:54:15.625Z,10.05
2022-11-14T20:56:48.654Z,10.03
2022-11-14T20:59:21.941Z,10.02
2022-11-14T21:01:54.969Z,9.99
2022-11-14T21:04:27.866Z,9.96
2022-11-14T21:07:00.896Z,9.92
2022-11-14T21:09:35.205Z,9.89
2022-11-14T21:12:08.493Z,9.85
2022-11-14T21:14:41.359Z,9.79
2022-11-14T21:17:14.309Z,9.76
2022-11-14T21:19:47.225Z,9.72
2022-11-14T21:22:20.114Z,9.69
2022-11-14T21:24:54.495Z,9.66
2022-11-14T21:27:27.412Z,9.63
2022-11-14T21:30:00.277Z,9.60
2022-11-14T21:32:36.393Z,9.56
2022-11-14T21:35:10.001Z,9.54
2022-11-14T21:37:43.070Z,9.52
2022-11-14T21:40:17.635Z,9.51
2022-11-14T21:42:50.689Z,9.47
2022-11-14T21:45:23.526Z,9.45
2022-11-14T21:47:56.408Z,9.43
2022-11-14T21:50:29.272Z,9.40
2022-11-14T21:53:02.918Z,9.37
2022-11-14T21:55:37.342Z,9.35
2022-11-14T21:58:11.331Z,9.30
2022-11-14T22:00:44.544Z,9.28
2022-11-14T22:03:36.050Z,9.26
2022-11-14T22:06:09.099Z,9.21
2022-11-14T22:08:42.176Z,9.19
2022-11-14T22:11:16.376Z,9.17
2022-11-14T22:13:49.623Z,9.14
2022-11-14T22:16:23.218Z,9.15
2022-11-14T22:19:02.025Z,9.12
2022-11-14T22:21:38.201Z,9.11
2022-11-14T22:24:11.037Z,9.08
2022-11-14T22:26:45.620Z,9.07
2022-11-14T22:29:18.544Z,9.06
2022-11-14T22:31:52.980Z,9.04
2022-11-14T22:34:26.344Z,9.04
2022-11-14T22:37:00.930Z,9.02
2022-11-14T22:39:34.804Z,9.05
2022-11-14T22:42:09.407Z,9.05
2022-11-14T22:44:43.003Z,9.05
2022-11-14T22:47:19.845Z,9.07
2022-11-14T22:49:58.140Z,9.08
2022-11-14T22:52:32.611Z,9.06
2022-11-14T22:55:06.609Z,9.08
2022-11-14T22:57:41.272Z,9.08
2022-11-14T23:00:16.539Z,9.06
2022-11-14T23:02:53.618Z,9.05
2022-11-14T23:05:26.935Z,9.04
2022-11-14T23:08:00.003Z,9.00
2022-11-14T23:10:35.275Z,8.98
2022-11-14T23:13:10.175Z,8.95
2022-11-14T23:15:48.490Z,8.93
2022-11-14T23:18:23.876Z,8.89
2022-11-14T23:20:56.843Z,8.84
2022-11-14T23:23:30.268Z,8.79
2022-11-14T23:26:04.567Z,8.77
2022-11-14T23:28:39.864Z,8.74
2022-11-14T23:31:13.475Z,8.68
2022-11-14T23:33:46.699Z,8.65
2022-11-14T23:36:19.987Z,8.62
2022-11-14T23:38:53.564Z,8.60
2022-11-14T23:41:26.894Z,8.58
2022-11-14T23:44:01.492Z,8.56
2022-11-14T23:46:34.426Z,8.52
2022-11-14T23:49:07.762Z,8.50
2022-11-14T23:51:41.111Z,8.48
2022-11-14T23:54:14.336Z,8.44
2022-11-14T23:56:47.562Z,8.40
2022-11-14T23:59:21.882Z,8.36
